sensor_id;sensor_type;location;lat;lon;timestamp;temperature;humidity
3416;DHT22;1721;51.238;9.562;2023-04-03T00:00:28;5.10;81.30
3416;DHT22;1721;51.238;9.562;2023-04-03T00:02:54;5.10;81.50
3416;DHT22;1721;51.238;9.562;2023-04-03T00:05:19;5.10;82.60
3416;DHT22;1721;51.238;9.562;2023-04-03T00:07:45;4.80;81.90
3416;DHT22;1721;51.238;9.562;2023-04-03T00:10:11;4.90;82.60
3416;DHT22;1721;51.238;9.562;2023-04-03T00:12:37;4.80;81.90
3416;DHT22;1721;51.238;9.562;2023-04-03T00:15:03;4.90;81.80
3416;DHT22;1721;51.238;9.562;2023-04-03T00:17:29;5.00;81.80
3416;DHT22;1721;51.238;9.562;2023-04-03T00:19:54;5.10;81.30
3416;DHT22;1721;51.238;9.562;2023-04-03T00:22:20;5.20;81.70
3416;DHT22;1721;51.238;9.562;2023-04-03T00:24:45;5.20;81.20
3416;DHT22;1721;51.238;9.562;2023-04-03T00:27:11;5.30;80.90
3416;DHT22;1721;51.238;9.562;2023-04-03T00:29:36;5.20;80.50
3416;DHT22;1721;51.238;9.562;2023-04-03T00:32:02;4.90;81.10
3416;DHT22;1721;51.238;9.562;2023-04-03T00:34:28;4.90;81.10
3416;DHT22;1721;51.238;9.562;2023-04-03T00:36:53;4.90;81.40
3416;DHT22;1721;51.238;9.562;2023-04-03T00:39:19;4.90;81.50
3416;DHT22;1721;51.238;9.562;2023-04-03T00:41:44;5.00;81.20
3416;DHT22;1721;51.238;9.562;2023-04-03T00:47:11;4.90;80.70
3416;DHT22;1721;51.238;9.562;2023-04-03T00:49:38;4.90;80.60
3416;DHT22;1721;51.238;9.562;2023-04-03T00:52:11;4.90;80.50
3416;DHT22;1721;51.238;9.562;2023-04-03T00:54:38;4.70;81.20
3416;DHT22;1721;51.238;9.562;2023-04-03T00:57:06;4.70;81.40
3416;DHT22;1721;51.238;9.562;2023-04-03T00:59:35;4.60;81.50
3416;DHT22;1721;51.238;9.562;2023-04-03T01:02:01;4.80;81.40
3416;DHT22;1721;51.238;9.562;2023-04-03T01:04:41;4.70;81.50
3416;DHT22;1721;51.238;9.562;2023-04-03T01:07:25;4.70;81.50
3416;DHT22;1721;51.238;9.562;2023-04-03T01:09:55;4.50;82.00
3416;DHT22;1721;51.238;9.562;2023-04-03T01:12:27;4.50;82.50
3416;DHT22;1721;51.238;9.562;2023-04-03T01:14:58;4.40;82.90
3416;DHT22;1721;51.238;9.562;2023-04-03T01:17:36;4.50;83.00
3416;DHT22;1721;51.238;9.562;2023-04-03T01:25:14;4.10;86.10
3416;DHT22;1721;51.238;9.562;2023-04-03T01:27:39;4.20;86.20
3416;DHT22;1721;51.238;9.562;2023-04-03T01:30:05;4.30;86.50
3416;DHT22;1721;51.238;9.562;2023-04-03T01:32:32;4.30;86.20
3416;DHT22;1721;51.238;9.562;2023-04-03T01:34:57;4.30;85.70
3416;DHT22;1721;51.238;9.562;2023-04-03T01:37:23;4.30;86.20
3416;DHT22;1721;51.238;9.562;2023-04-03T01:39:48;4.40;86.40
3416;DHT22;1721;51.238;9.562;2023-04-03T01:42:14;4.30;86.00
3416;DHT22;1721;51.238;9.562;2023-04-03T01:44:41;4.30;86.10
3416;DHT22;1721;51.238;9.562;2023-04-03T01:47:07;4.30;85.80
3416;DHT22;1721;51.238;9.562;2023-04-03T01:49:32;4.30;85.80
3416;DHT22;1721;51.238;9.562;2023-04-03T01:51:58;4.10;86.30
3416;DHT22;1721;51.238;9.562;2023-04-03T01:54:23;4.10;86.30
3416;DHT22;1721;51.238;9.562;2023-04-03T01:56:49;4.00;86.60
3416;DHT22;1721;51.238;9.562;2023-04-03T01:59:14;4.00;86.50
3416;DHT22;1721;51.238;9.562;2023-04-03T02:01:42;4.00;86.60
3416;DHT22;1721;51.238;9.562;2023-04-03T02:04:09;3.90;86.60
3416;DHT22;1721;51.238;9.562;2023-04-03T02:06:34;3.90;86.40
3416;DHT22;1721;51.238;9.562;2023-04-03T02:09:00;3.90;86.30
3416;DHT22;1721;51.238;9.562;2023-04-03T02:11:26;3.90;86.60
3416;DHT22;1721;51.238;9.562;2023-04-03T02:13:52;3.90;86.50
3416;DHT22;1721;51.238;9.562;2023-04-03T02:16:17;3.90;86.40
3416;DHT22;1721;51.238;9.562;2023-04-03T02:18:43;3.90;86.80
3416;DHT22;1721;51.238;9.562;2023-04-03T02:21:09;3.80;86.80
3416;DHT22;1721;51.238;9.562;2023-04-03T02:23:34;3.80;86.90
3416;DHT22;1721;51.238;9.562;2023-04-03T02:26:08;3.80;86.90
3416;DHT22;1721;51.238;9.562;2023-04-03T02:28:34;3.80;87.30
3416;DHT22;1721;51.238;9.562;2023-04-03T02:31:00;3.80;87.50
3416;DHT22;1721;51.238;9.562;2023-04-03T02:33:25;3.80;87.20
3416;DHT22;1721;51.238;9.562;2023-04-03T02:35:55;3.70;87.10
3416;DHT22;1721;51.238;9.562;2023-04-03T02:38:22;3.70;87.30
3416;DHT22;1721;51.238;9.562;2023-04-03T02:40:47;3.60;87.50
3416;DHT22;1721;51.238;9.562;2023-04-03T02:43:13;3.60;88.10
3416;DHT22;1721;51.238;9.562;2023-04-03T02:45:39;3.30;88.70
3416;DHT22;1721;51.238;9.562;2023-04-03T02:48:05;3.30;89.40
3416;DHT22;1721;51.238;9.562;2023-04-03T02:50:30;3.30;89.90
3416;DHT22;1721;51.238;9.562;2023-04-03T02:52:56;3.30;89.70
3416;DHT22;1721;51.238;9.562;2023-04-03T02:55:21;3.40;89.60
3416;DHT22;1721;51.238;9.562;2023-04-03T02:57:47;3.40;89.60
3416;DHT22;1721;51.238;9.562;2023-04-03T03:00:13;3.30;89.60
3416;DHT22;1721;51.238;9.562;2023-04-03T03:02:40;3.30;89.80
3416;DHT22;1721;51.238;9.562;2023-04-03T03:05:06;3.50;89.20
3416;DHT22;1721;51.238;9.562;2023-04-03T03:07:32;3.30;88.70
3416;DHT22;1721;51.238;9.562;2023-04-03T03:09:58;3.30;88.90
3416;DHT22;1721;51.238;9.562;2023-04-03T03:12:24;3.30;88.80
3416;DHT22;1721;51.238;9.562;2023-04-03T03:14:50;3.30;89.10
3416;DHT22;1721;51.238;9.562;2023-04-03T03:17:16;3.30;89.30
3416;DHT22;1721;51.238;9.562;2023-04-03T03:19:42;3.40;89.00
3416;DHT22;1721;51.238;9.562;2023-04-03T03:22:08;3.30;89.20
3416;DHT22;1721;51.238;9.562;2023-04-03T03:24:33;3.30;89.20
3416;DHT22;1721;51.238;9.562;2023-04-03T03:26:59;3.30;89.20
3416;DHT22;1721;51.238;9.562;2023-04-03T03:29:24;3.30;89.00
3416;DHT22;1721;51.238;9.562;2023-04-03T03:31:50;3.10;89.20
3416;DHT22;1721;51.238;9.562;2023-04-03T03:34:15;3.00;89.30
3416;DHT22;1721;51.238;9.562;2023-04-03T03:36:41;2.90;89.50
3416;DHT22;1721;51.238;9.562;2023-04-03T03:39:06;2.80;90.00
3416;DHT22;1721;51.238;9.562;2023-04-03T03:41:32;2.80;89.80
3416;DHT22;1721;51.238;9.562;2023-04-03T03:43:57;2.70;89.80
3416;DHT22;1721;51.238;9.562;2023-04-03T03:46:23;2.60;90.10
3416;DHT22;1721;51.238;9.562;2023-04-03T03:48:48;2.50;90.10
3416;DHT22;1721;51.238;9.562;2023-04-03T03:51:14;2.50;90.30
3416;DHT22;1721;51.238;9.562;2023-04-03T03:53:39;2.50;90.20
3416;DHT22;1721;51.238;9.562;2023-04-03T03:56:05;2.50;90.00
3416;DHT22;1721;51.238;9.562;2023-04-03T03:58:31;2.30;90.50
3416;DHT22;1721;51.238;9.562;2023-04-03T04:01:00;2.20;90.60
3416;DHT22;1721;51.238;9.562;2023-04-03T04:03:25;2.20;90.60
3416;DHT22;1721;51.238;9.562;2023-04-03T04:05:51;2.20;90.70
3416;DHT22;1721;51.238;9.562;2023-04-03T04:08:16;2.30;90.40
3416;DHT22;1721;51.238;9.562;2023-04-03T04:10:42;2.30;90.60
3416;DHT22;1721;51.238;9.562;2023-04-03T04:13:07;2.20;90.60
3416;DHT22;1721;51.238;9.562;2023-04-03T04:15:33;2.20;90.70
3416;DHT22;1721;51.238;9.562;2023-04-03T04:17:59;2.10;90.80
3416;DHT22;1721;51.238;9.562;2023-04-03T04:20:24;2.10;90.70
3416;DHT22;1721;51.238;9.562;2023-04-03T04:22:49;2.10;90.80
3416;DHT22;1721;51.238;9.562;2023-04-03T04:25:15;2.00;91.00
3416;DHT22;1721;51.238;9.562;2023-04-03T04:27:41;2.00;90.90
3416;DHT22;1721;51.238;9.562;2023-04-03T04:30:06;1.90;91.00
3416;DHT22;1721;51.238;9.562;2023-04-03T04:32:32;1.90;91.20
3416;DHT22;1721;51.238;9.562;2023-04-03T04:34:58;1.90;91.30
3416;DHT22;1721;51.238;9.562;2023-04-03T04:37:23;1.70;91.50
3416;DHT22;1721;51.238;9.562;2023-04-03T04:39:49;1.70;91.80
3416;DHT22;1721;51.238;9.562;2023-04-03T04:42:14;1.70;91.80
3416;DHT22;1721;51.238;9.562;2023-04-03T04:44:40;1.70;91.70
3416;DHT22;1721;51.238;9.562;2023-04-03T04:47:05;1.70;91.80
3416;DHT22;1721;51.238;9.562;2023-04-03T04:49:31;1.70;91.60
3416;DHT22;1721;51.238;9.562;2023-04-03T04:51:56;1.80;91.70
3416;DHT22;1721;51.238;9.562;2023-04-03T04:54:22;1.80;91.50
3416;DHT22;1721;51.238;9.562;2023-04-03T04:56:47;1.80;91.30
3416;DHT22;1721;51.238;9.562;2023-04-03T04:59:12;1.70;91.30
3416;DHT22;1721;51.238;9.562;2023-04-03T05:01:38;1.60;91.30
3416;DHT22;1721;51.238;9.562;2023-04-03T05:04:03;1.60;91.40
3416;DHT22;1721;51.238;9.562;2023-04-03T05:06:29;1.70;91.30
3416;DHT22;1721;51.238;9.562;2023-04-03T05:08:58;1.60;91.10
3416;DHT22;1721;51.238;9.562;2023-04-03T05:11:24;1.70;91.20
3416;DHT22;1721;51.238;9.562;2023-04-03T05:13:49;1.70;91.00
3416;DHT22;1721;51.238;9.562;2023-04-03T05:16:15;1.70;90.90
3416;DHT22;1721;51.238;9.562;2023-04-03T05:18:40;1.60;90.90
3416;DHT22;1721;51.238;9.562;2023-04-03T05:21:05;1.60;91.10
3416;DHT22;1721;51.238;9.562;2023-04-03T05:23:31;1.70;91.00
3416;DHT22;1721;51.238;9.562;2023-04-03T05:25:56;1.60;90.80
3416;DHT22;1721;51.238;9.562;2023-04-03T05:28:22;1.70;91.00
3416;DHT22;1721;51.238;9.562;2023-04-03T05:30:56;1.70;90.80
3416;DHT22;1721;51.238;9.562;2023-04-03T05:33:22;1.70;90.70
3416;DHT22;1721;51.238;9.562;2023-04-03T05:35:48;1.80;90.70
3416;DHT22;1721;51.238;9.562;2023-04-03T05:38:14;1.60;90.80
3416;DHT22;1721;51.238;9.562;2023-04-03T05:40:40;1.60;90.90
3416;DHT22;1721;51.238;9.562;2023-04-03T05:43:05;1.70;90.90
3416;DHT22;1721;51.238;9.562;2023-04-03T05:45:31;1.80;90.70
3416;DHT22;1721;51.238;9.562;2023-04-03T05:47:56;1.70;90.70
3416;DHT22;1721;51.238;9.562;2023-04-03T05:50:22;1.30;91.10
3416;DHT22;1721;51.238;9.562;2023-04-03T05:52:48;1.40;91.20
3416;DHT22;1721;51.238;9.562;2023-04-03T05:55:14;1.40;91.30
3416;DHT22;1721;51.238;9.562;2023-04-03T05:57:40;1.50;91.30
3416;DHT22;1721;51.238;9.562;2023-04-03T06:00:05;1.60;91.10
3416;DHT22;1721;51.238;9.562;2023-04-03T06:02:31;1.60;90.90
3416;DHT22;1721;51.238;9.562;2023-04-03T06:04:57;1.60;91.20
3416;DHT22;1721;51.238;9.562;2023-04-03T06:07:23;1.70;90.80
3416;DHT22;1721;51.238;9.562;2023-04-03T06:09:49;1.60;90.90
3416;DHT22;1721;51.238;9.562;2023-04-03T06:12:15;1.70;90.80
3416;DHT22;1721;51.238;9.562;2023-04-03T06:14:40;1.80;91.00
3416;DHT22;1721;51.238;9.562;2023-04-03T06:17:06;1.90;90.70
3416;DHT22;1721;51.238;9.562;2023-04-03T06:19:32;1.80;90.70
3416;DHT22;1721;51.238;9.562;2023-04-03T06:21:57;2.10;90.90
3416;DHT22;1721;51.238;9.562;2023-04-03T06:24:23;2.20;90.70
3416;DHT22;1721;51.238;9.562;2023-04-03T06:26:50;2.20;90.30
3416;DHT22;1721;51.238;9.562;2023-04-03T06:29:16;2.20;90.20
3416;DHT22;1721;51.238;9.562;2023-04-03T06:31:42;2.10;90.30
3416;DHT22;1721;51.238;9.562;2023-04-03T06:34:08;2.10;90.60
3416;DHT22;1721;51.238;9.562;2023-04-03T06:36:33;2.30;90.70
3416;DHT22;1721;51.238;9.562;2023-04-03T06:38:59;2.50;90.60
3416;DHT22;1721;51.238;9.562;2023-04-03T06:41:25;2.70;90.20
3416;DHT22;1721;51.238;9.562;2023-04-03T06:43:51;2.80;90.00
3416;DHT22;1721;51.238;9.562;2023-04-03T06:46:17;2.80;89.60
3416;DHT22;1721;51.238;9.562;2023-04-03T06:48:43;3.00;89.80
3416;DHT22;1721;51.238;9.562;2023-04-03T06:51:19;2.90;89.30
3416;DHT22;1721;51.238;9.562;2023-04-03T06:53:45;2.90;89.80
3416;DHT22;1721;51.238;9.562;2023-04-03T06:56:11;2.90;90.00
3416;DHT22;1721;51.238;9.562;2023-04-03T06:58:36;2.80;90.40
3416;DHT22;1721;51.238;9.562;2023-04-03T07:01:02;3.10;90.60
3416;DHT22;1721;51.238;9.562;2023-04-03T07:03:28;3.20;89.60
3416;DHT22;1721;51.238;9.562;2023-04-03T07:05:53;3.10;89.20
3416;DHT22;1721;51.238;9.562;2023-04-03T07:08:18;3.20;89.70
3416;DHT22;1721;51.238;9.562;2023-04-03T07:10:44;3.40;89.50
3416;DHT22;1721;51.238;9.562;2023-04-03T07:13:10;3.70;88.70
3416;DHT22;1721;51.238;9.562;2023-04-03T07:15:36;3.90;88.10
3416;DHT22;1721;51.238;9.562;2023-04-03T07:18:02;4.00;86.90
3416;DHT22;1721;51.238;9.562;2023-04-03T07:20:27;4.10;86.90
3416;DHT22;1721;51.238;9.562;2023-04-03T07:22:53;4.00;86.60
3416;DHT22;1721;51.238;9.562;2023-04-03T07:25:18;4.00;86.80
3416;DHT22;1721;51.238;9.562;2023-04-03T07:27:44;3.90;86.30
3416;DHT22;1721;51.238;9.562;2023-04-03T07:30:09;3.70;86.40
3416;DHT22;1721;51.238;9.562;2023-04-03T07:32:35;4.00;86.80
3416;DHT22;1721;51.238;9.562;2023-04-03T07:35:02;4.00;86.20
3416;DHT22;1721;51.238;9.562;2023-04-03T07:37:27;4.20;86.30
3416;DHT22;1721;51.238;9.562;2023-04-03T07:39:53;4.50;86.20
3416;DHT22;1721;51.238;9.562;2023-04-03T07:42:20;4.60;84.80
3416;DHT22;1721;51.238;9.562;2023-04-03T07:44:45;4.60;85.60
3416;DHT22;1721;51.238;9.562;2023-04-03T07:47:11;4.30;83.90
3416;DHT22;1721;51.238;9.562;2023-04-03T07:49:38;4.10;84.50
3416;DHT22;1721;51.238;9.562;2023-04-03T07:52:05;4.30;84.70
3416;DHT22;1721;51.238;9.562;2023-04-03T07:54:32;4.50;83.10
3416;DHT22;1721;51.238;9.562;2023-04-03T07:56:57;4.50;82.20
3416;DHT22;1721;51.238;9.562;2023-04-03T07:59:23;4.60;82.40
3416;DHT22;1721;51.238;9.562;2023-04-03T08:01:48;4.70;78.80
3416;DHT22;1721;51.238;9.562;2023-04-03T08:04:14;4.30;78.90
3416;DHT22;1721;51.238;9.562;2023-04-03T08:06:39;4.30;79.10
3416;DHT22;1721;51.238;9.562;2023-04-03T08:09:05;4.20;78.30
3416;DHT22;1721;51.238;9.562;2023-04-03T08:11:30;4.20;78.00
3416;DHT22;1721;51.238;9.562;2023-04-03T08:13:56;4.30;76.70
3416;DHT22;1721;51.238;9.562;2023-04-03T08:16:22;4.20;77.70
3416;DHT22;1721;51.238;9.562;2023-04-03T08:18:50;4.40;74.80
3416;DHT22;1721;51.238;9.562;2023-04-03T08:21:16;4.40;74.90
3416;DHT22;1721;51.238;9.562;2023-04-03T08:23:42;4.60;74.90
3416;DHT22;1721;51.238;9.562;2023-04-03T08:26:08;4.60;74.50
3416;DHT22;1721;51.238;9.562;2023-04-03T08:28:34;4.80;74.70
3416;DHT22;1721;51.238;9.562;2023-04-03T08:31:06;5.00;76.30
3416;DHT22;1721;51.238;9.562;2023-04-03T08:33:32;5.10;73.80
3416;DHT22;1721;51.238;9.562;2023-04-03T08:35:58;5.40;72.80
3416;DHT22;1721;51.238;9.562;2023-04-03T08:38:24;5.40;71.50
3416;DHT22;1721;51.238;9.562;2023-04-03T08:41:11;5.40;70.60
3416;DHT22;1721;51.238;9.562;2023-04-03T08:44:13;5.20;71.00
3416;DHT22;1721;51.238;9.562;2023-04-03T08:46:38;4.80;72.50
3416;DHT22;1721;51.238;9.562;2023-04-03T08:49:07;4.80;70.80
3416;DHT22;1721;51.238;9.562;2023-04-03T08:51:36;4.70;71.20
3416;DHT22;1721;51.238;9.562;2023-04-03T08:54:04;4.60;66.80
3416;DHT22;1721;51.238;9.562;2023-04-03T08:56:33;4.30;69.20
3416;DHT22;1721;51.238;9.562;2023-04-03T08:59:05;4.20;68.70
3416;DHT22;1721;51.238;9.562;2023-04-03T09:03:59;4.50;68.80
3416;DHT22;1721;51.238;9.562;2023-04-03T09:06:26;4.70;68.10
3416;DHT22;1721;51.238;9.562;2023-04-03T09:09:10;4.50;68.60
3416;DHT22;1721;51.238;9.562;2023-04-03T09:14:24;4.70;69.40
3416;DHT22;1721;51.238;9.562;2023-04-03T09:16:55;4.80;69.90
3416;DHT22;1721;51.238;9.562;2023-04-03T09:21:48;5.10;69.60
3416;DHT22;1721;51.238;9.562;2023-04-03T09:24:15;5.20;69.60
3416;DHT22;1721;51.238;9.562;2023-04-03T09:29:10;5.00;69.60
3416;DHT22;1721;51.238;9.562;2023-04-03T09:31:39;5.00;70.10
3416;DHT22;1721;51.238;9.562;2023-04-03T09:34:06;5.20;71.50
3416;DHT22;1721;51.238;9.562;2023-04-03T09:36:40;5.40;70.60
3416;DHT22;1721;51.238;9.562;2023-04-03T09:39:07;5.50;69.40
3416;DHT22;1721;51.238;9.562;2023-04-03T09:41:34;5.40;68.80
3416;DHT22;1721;51.238;9.562;2023-04-03T09:44:00;5.10;68.50
3416;DHT22;1721;51.238;9.562;2023-04-03T09:46:30;5.30;70.80
3416;DHT22;1721;51.238;9.562;2023-04-03T09:49:05;5.20;70.90
3416;DHT22;1721;51.238;9.562;2023-04-03T09:51:36;5.50;69.00
3416;DHT22;1721;51.238;9.562;2023-04-03T09:54:04;5.40;69.80
3416;DHT22;1721;51.238;9.562;2023-04-03T09:56:50;5.50;68.70
3416;DHT22;1721;51.238;9.562;2023-04-03T09:59:16;5.60;67.80
3416;DHT22;1721;51.238;9.562;2023-04-03T10:01:43;5.80;66.40
3416;DHT22;1721;51.238;9.562;2023-04-03T10:04:16;5.80;69.60
3416;DHT22;1721;51.238;9.562;2023-04-03T10:06:53;6.00;69.10
3416;DHT22;1721;51.238;9.562;2023-04-03T10:12:01;6.00;70.20
3416;DHT22;1721;51.238;9.562;2023-04-03T10:14:33;6.10;69.00
3416;DHT22;1721;51.238;9.562;2023-04-03T10:17:21;6.30;69.60
3416;DHT22;1721;51.238;9.562;2023-04-03T10:22:45;6.60;68.30
3416;DHT22;1721;51.238;9.562;2023-04-03T10:28:01;6.50;68.30
3416;DHT22;1721;51.238;9.562;2023-04-03T10:33:36;6.70;66.20
3416;DHT22;1721;51.238;9.562;2023-04-03T10:39:15;6.30;66.00
3416;DHT22;1721;51.238;9.562;2023-04-03T10:44:52;6.80;65.40
3416;DHT22;1721;51.238;9.562;2023-04-03T10:47:30;6.50;65.20
3416;DHT22;1721;51.238;9.562;2023-04-03T10:50:23;6.80;62.60
3416;DHT22;1721;51.238;9.562;2023-04-03T10:52:54;6.60;64.00
3416;DHT22;1721;51.238;9.562;2023-04-03T10:55:34;6.60;62.80
3416;DHT22;1721;51.238;9.562;2023-04-03T10:58:02;6.90;65.60
3416;DHT22;1721;51.238;9.562;2023-04-03T11:00:47;7.00;63.40
3416;DHT22;1721;51.238;9.562;2023-04-03T11:03:30;7.00;63.10
3416;DHT22;1721;51.238;9.562;2023-04-03T11:06:00;6.90;61.50
3416;DHT22;1721;51.238;9.562;2023-04-03T11:08:33;7.00;61.50
3416;DHT22;1721;51.238;9.562;2023-04-03T11:11:05;7.10;63.20
3416;DHT22;1721;51.238;9.562;2023-04-03T11:13:39;7.30;63.40
3416;DHT22;1721;51.238;9.562;2023-04-03T11:16:06;7.00;64.80
3416;DHT22;1721;51.238;9.562;2023-04-03T11:21:40;7.00;63.30
3416;DHT22;1721;51.238;9.562;2023-04-03T11:24:24;6.80;65.00
3416;DHT22;1721;51.238;9.562;2023-04-03T11:26:51;6.90;64.70
3416;DHT22;1721;51.238;9.562;2023-04-03T11:29:21;6.90;64.80
3416;DHT22;1721;51.238;9.562;2023-04-03T11:34:40;6.60;66.50
3416;DHT22;1721;51.238;9.562;2023-04-03T11:37:31;6.50;64.10
3416;DHT22;1721;51.238;9.562;2023-04-03T11:40:18;6.20;65.00
3416;DHT22;1721;51.238;9.562;2023-04-03T11:43:07;6.20;65.30
3416;DHT22;1721;51.238;9.562;2023-04-03T11:50:47;5.80;65.60
3416;DHT22;1721;51.238;9.562;2023-04-03T11:55:52;5.50;67.00
3416;DHT22;1721;51.238;9.562;2023-04-03T11:58:38;5.60;66.70
3416;DHT22;1721;51.238;9.562;2023-04-03T12:01:06;5.60;66.20
3416;DHT22;1721;51.238;9.562;2023-04-03T12:21:17;6.30;63.70
3416;DHT22;1721;51.238;9.562;2023-04-03T12:26:32;6.30;65.40
3416;DHT22;1721;51.238;9.562;2023-04-03T12:28:59;6.40;66.60
3416;DHT22;1721;51.238;9.562;2023-04-03T12:31:40;6.60;65.40
3416;DHT22;1721;51.238;9.562;2023-04-03T12:37:14;6.30;66.10
3416;DHT22;1721;51.238;9.562;2023-04-03T12:45:24;6.60;64.10
3416;DHT22;1721;51.238;9.562;2023-04-03T12:47:53;6.80;62.80
3416;DHT22;1721;51.238;9.562;2023-04-03T12:50:29;6.90;64.40
3416;DHT22;1721;51.238;9.562;2023-04-03T12:53:11;7.10;64.90
3416;DHT22;1721;51.238;9.562;2023-04-03T12:55:37;7.10;64.30
3416;DHT22;1721;51.238;9.562;2023-04-03T12:58:19;7.00;63.50
3416;DHT22;1721;51.238;9.562;2023-04-03T13:00:46;6.90;61.10
3416;DHT22;1721;51.238;9.562;2023-04-03T13:03:25;6.80;61.10
3416;DHT22;1721;51.238;9.562;2023-04-03T13:06:00;6.60;62.40
3416;DHT22;1721;51.238;9.562;2023-04-03T13:08:27;6.60;61.80
3416;DHT22;1721;51.238;9.562;2023-04-03T13:11:00;6.30;61.40
3416;DHT22;1721;51.238;9.562;2023-04-03T13:13:26;6.30;62.60
3416;DHT22;1721;51.238;9.562;2023-04-03T13:15:53;6.30;62.80
3416;DHT22;1721;51.238;9.562;2023-04-03T13:20:49;6.70;63.00
3416;DHT22;1721;51.238;9.562;2023-04-03T13:23:16;7.10;62.70
3416;DHT22;1721;51.238;9.562;2023-04-03T13:25:44;7.40;63.80
3416;DHT22;1721;51.238;9.562;2023-04-03T13:28:14;7.50;63.50
3416;DHT22;1721;51.238;9.562;2023-04-03T13:30:53;7.80;62.60
3416;DHT22;1721;51.238;9.562;2023-04-03T13:33:22;7.80;63.00
3416;DHT22;1721;51.238;9.562;2023-04-03T13:35:56;8.00;65.80
3416;DHT22;1721;51.238;9.562;2023-04-03T13:38:25;8.30;64.80
3416;DHT22;1721;51.238;9.562;2023-04-03T13:41:05;8.30;64.70
3416;DHT22;1721;51.238;9.562;2023-04-03T13:43:34;8.10;62.10
3416;DHT22;1721;51.238;9.562;2023-04-03T13:46:05;8.00;62.70
3416;DHT22;1721;51.238;9.562;2023-04-03T13:48:39;7.90;62.40
3416;DHT22;1721;51.238;9.562;2023-04-03T13:51:18;8.00;62.10
3416;DHT22;1721;51.238;9.562;2023-04-03T13:53:58;7.80;61.20
3416;DHT22;1721;51.238;9.562;2023-04-03T13:56:36;7.60;60.50
3416;DHT22;1721;51.238;9.562;2023-04-03T14:04:21;7.40;60.80
3416;DHT22;1721;51.238;9.562;2023-04-03T14:06:48;7.50;61.10
3416;DHT22;1721;51.238;9.562;2023-04-03T14:09:16;7.60;61.30
3416;DHT22;1721;51.238;9.562;2023-04-03T14:11:42;7.40;61.10
3416;DHT22;1721;51.238;9.562;2023-04-03T14:14:18;7.70;62.00
3416;DHT22;1721;51.238;9.562;2023-04-03T14:16:49;7.90;62.40
3416;DHT22;1721;51.238;9.562;2023-04-03T14:19:34;7.80;62.60
3416;DHT22;1721;51.238;9.562;2023-04-03T14:22:11;7.70;65.20
3416;DHT22;1721;51.238;9.562;2023-04-03T14:24:38;7.80;61.80
3416;DHT22;1721;51.238;9.562;2023-04-03T14:29:42;7.70;63.80
3416;DHT22;1721;51.238;9.562;2023-04-03T14:32:12;7.70;60.90
3416;DHT22;1721;51.238;9.562;2023-04-03T14:34:38;7.60;59.50
3416;DHT22;1721;51.238;9.562;2023-04-03T14:37:05;7.50;60.30
3416;DHT22;1721;51.238;9.562;2023-04-03T14:39:31;7.60;58.90
3416;DHT22;1721;51.238;9.562;2023-04-03T14:41:56;7.30;59.50
3416;DHT22;1721;51.238;9.562;2023-04-03T14:44:22;7.20;61.80
3416;DHT22;1721;51.238;9.562;2023-04-03T14:46:48;7.50;63.50
3416;DHT22;1721;51.238;9.562;2023-04-03T14:49:19;7.90;61.90
3416;DHT22;1721;51.238;9.562;2023-04-03T14:51:46;8.20;62.50
3416;DHT22;1721;51.238;9.562;2023-04-03T14:54:18;8.30;61.10
3416;DHT22;1721;51.238;9.562;2023-04-03T14:56:47;8.30;60.10
3416;DHT22;1721;51.238;9.562;2023-04-03T14:59:13;8.10;61.60
3416;DHT22;1721;51.238;9.562;2023-04-03T15:01:39;8.00;60.20
3416;DHT22;1721;51.238;9.562;2023-04-03T15:04:11;8.10;61.10
3416;DHT22;1721;51.238;9.562;2023-04-03T15:06:37;7.90;61.00
3416;DHT22;1721;51.238;9.562;2023-04-03T15:09:03;7.80;60.10
3416;DHT22;1721;51.238;9.562;2023-04-03T15:11:28;7.90;60.90
3416;DHT22;1721;51.238;9.562;2023-04-03T15:13:54;7.70;58.80
3416;DHT22;1721;51.238;9.562;2023-04-03T15:16:20;7.50;58.80
3416;DHT22;1721;51.238;9.562;2023-04-03T15:18:46;7.40;59.20
3416;DHT22;1721;51.238;9.562;2023-04-03T15:21:13;7.00;59.40
3416;DHT22;1721;51.238;9.562;2023-04-03T15:23:38;6.80;60.60
3416;DHT22;1721;51.238;9.562;2023-04-03T15:26:04;7.00;59.70
3416;DHT22;1721;51.238;9.562;2023-04-03T15:28:33;7.20;60.20
3416;DHT22;1721;51.238;9.562;2023-04-03T15:30:59;7.20;61.10
3416;DHT22;1721;51.238;9.562;2023-04-03T15:33:25;7.20;60.40
3416;DHT22;1721;51.238;9.562;2023-04-03T15:35:51;7.10;58.70
3416;DHT22;1721;51.238;9.562;2023-04-03T15:38:17;6.90;59.50
3416;DHT22;1721;51.238;9.562;2023-04-03T15:40:42;7.00;59.50
3416;DHT22;1721;51.238;9.562;2023-04-03T15:43:09;7.00;59.50
3416;DHT22;1721;51.238;9.562;2023-04-03T15:45:36;7.10;58.90
3416;DHT22;1721;51.238;9.562;2023-04-03T15:48:03;7.10;59.10
3416;DHT22;1721;51.238;9.562;2023-04-03T15:50:30;7.20;59.50
3416;DHT22;1721;51.238;9.562;2023-04-03T15:52:56;7.30;60.70
3416;DHT22;1721;51.238;9.562;2023-04-03T15:55:25;7.30;58.90
3416;DHT22;1721;51.238;9.562;2023-04-03T15:57:52;7.40;59.10
3416;DHT22;1721;51.238;9.562;2023-04-03T16:00:17;7.50;58.80
3416;DHT22;1721;51.238;9.562;2023-04-03T16:02:45;7.40;59.30
3416;DHT22;1721;51.238;9.562;2023-04-03T16:05:12;7.50;60.10
3416;DHT22;1721;51.238;9.562;2023-04-03T16:07:41;7.40;63.00
3416;DHT22;1721;51.238;9.562;2023-04-03T16:10:08;7.50;58.90
3416;DHT22;1721;51.238;9.562;2023-04-03T16:12:34;7.50;57.30
3416;DHT22;1721;51.238;9.562;2023-04-03T16:15:00;7.40;57.50
3416;DHT22;1721;51.238;9.562;2023-04-03T16:17:27;7.10;58.20
3416;DHT22;1721;51.238;9.562;2023-04-03T16:19:53;7.00;58.60
3416;DHT22;1721;51.238;9.562;2023-04-03T16:22:20;7.10;59.80
3416;DHT22;1721;51.238;9.562;2023-04-03T16:24:45;7.30;59.10
3416;DHT22;1721;51.238;9.562;2023-04-03T16:27:11;7.50;59.80
3416;DHT22;1721;51.238;9.562;2023-04-03T16:29:36;7.70;60.10
3416;DHT22;1721;51.238;9.562;2023-04-03T16:32:03;7.60;60.50
3416;DHT22;1721;51.238;9.562;2023-04-03T16:34:28;7.70;60.90
3416;DHT22;1721;51.238;9.562;2023-04-03T16:36:56;7.50;59.00
3416;DHT22;1721;51.238;9.562;2023-04-03T16:39:21;7.00;60.00
3416;DHT22;1721;51.238;9.562;2023-04-03T16:41:47;6.90;60.10
3416;DHT22;1721;51.238;9.562;2023-04-03T16:44:12;6.80;59.50
3416;DHT22;1721;51.238;9.562;2023-04-03T16:46:38;6.40;59.60
3416;DHT22;1721;51.238;9.562;2023-04-03T16:49:04;6.20;60.50
3416;DHT22;1721;51.238;9.562;2023-04-03T16:51:30;6.30;60.10
3416;DHT22;1721;51.238;9.562;2023-04-03T16:53:57;6.30;60.00
3416;DHT22;1721;51.238;9.562;2023-04-03T16:56:23;6.20;60.10
3416;DHT22;1721;51.238;9.562;2023-04-03T16:58:48;6.20;60.30
3416;DHT22;1721;51.238;9.562;2023-04-03T17:01:17;6.10;60.70
3416;DHT22;1721;51.238;9.562;2023-04-03T17:03:42;6.20;60.30
3416;DHT22;1721;51.238;9.562;2023-04-03T17:06:11;6.30;61.40
3416;DHT22;1721;51.238;9.562;2023-04-03T17:08:41;6.60;61.00
3416;DHT22;1721;51.238;9.562;2023-04-03T17:11:07;6.70;60.40
3416;DHT22;1721;51.238;9.562;2023-04-03T17:13:33;6.80;60.00
3416;DHT22;1721;51.238;9.562;2023-04-03T17:15:59;6.90;61.30
3416;DHT22;1721;51.238;9.562;2023-04-03T17:18:26;7.00;60.30
3416;DHT22;1721;51.238;9.562;2023-04-03T17:20:52;6.80;60.40
3416;DHT22;1721;51.238;9.562;2023-04-03T17:23:17;6.40;61.30
3416;DHT22;1721;51.238;9.562;2023-04-03T17:25:43;6.40;61.80
3416;DHT22;1721;51.238;9.562;2023-04-03T17:28:08;6.50;60.50
3416;DHT22;1721;51.238;9.562;2023-04-03T17:30:35;6.30;59.30
3416;DHT22;1721;51.238;9.562;2023-04-03T17:33:00;5.90;59.90
3416;DHT22;1721;51.238;9.562;2023-04-03T17:35:26;5.90;60.80
3416;DHT22;1721;51.238;9.562;2023-04-03T17:37:51;5.90;61.10
3416;DHT22;1721;51.238;9.562;2023-04-03T17:40:18;5.90;61.00
3416;DHT22;1721;51.238;9.562;2023-04-03T17:42:43;5.90;60.80
3416;DHT22;1721;51.238;9.562;2023-04-03T17:45:09;5.90;60.70
3416;DHT22;1721;51.238;9.562;2023-04-03T17:47:35;5.80;60.90
3416;DHT22;1721;51.238;9.562;2023-04-03T17:50:00;5.80;61.00